createdAt,value
2019-02-16T00:02:26.597Z,6.03
2019-02-16T00:04:59.111Z,7.62
2019-02-16T00:07:32.426Z,7.47
2019-02-16T00:10:06.537Z,6.50
2019-02-16T00:12:40.990Z,7.45
2019-02-16T00:15:16.671Z,6.67
2019-02-16T00:17:49.877Z,7.53
2019-02-16T00:20:23.860Z,7.53
2019-02-16T00:22:58.098Z,5.82
2019-02-16T00:25:32.252Z,8.13
2019-02-16T00:28:06.682Z,7.70
2019-02-16T00:30:39.537Z,7.82
2019-02-16T00:33:14.500Z,6.63
2019-02-16T00:35:47.131Z,6.13
2019-02-16T00:38:19.645Z,7.40
2019-02-16T00:40:54.799Z,6.57
2019-02-16T00:43:27.249Z,6.93
2019-02-16T00:46:00.303Z,9.17
2019-02-16T00:48:33.175Z,7.77
2019-02-16T00:51:13.257Z,5.90
2019-02-16T00:53:49.470Z,9.10
2019-02-16T00:56:23.315Z,6.53
2019-02-16T00:58:56.076Z,6.83
2019-02-16T01:01:28.660Z,7.97
2019-02-16T01:04:05.358Z,10.60
2019-02-16T01:06:38.603Z,9.02
2019-02-16T01:09:12.229Z,6.80
2019-02-16T01:11:47.343Z,6.90
2019-02-16T01:14:19.859Z,6.97
2019-02-16T01:16:52.472Z,7.43
2019-02-16T01:19:26.347Z,8.10
2019-02-16T01:21:58.859Z,7.62
2019-02-16T01:24:32.671Z,7.30
2019-02-16T01:27:08.247Z,7.68
2019-02-16T01:29:40.695Z,8.17
2019-02-16T01:32:13.299Z,8.90
2019-02-16T01:34:46.653Z,8.13
2019-02-16T01:37:19.462Z,7.77
2019-02-16T01:39:52.060Z,7.00
2019-02-16T01:42:29.189Z,8.37
2019-02-16T01:45:05.353Z,6.97
2019-02-16T01:47:38.632Z,9.97
2019-02-16T01:50:11.614Z,9.23
2019-02-16T01:52:45.110Z,6.87
2019-02-16T01:55:18.718Z,8.30
2019-02-16T01:57:53.471Z,7.30
2019-02-16T02:00:25.984Z,6.47
2019-02-16T02:03:00.061Z,9.90
2019-02-16T02:05:34.038Z,9.47
2019-02-16T02:08:08.044Z,8.53
2019-02-16T02:10:40.680Z,7.17
2019-02-16T02:13:13.599Z,8.30
2019-02-16T02:15:47.276Z,6.43
2019-02-16T02:18:19.969Z,8.57
2019-02-16T02:20:52.948Z,8.75
2019-02-16T02:23:26.072Z,8.20
2019-02-16T02:25:58.748Z,8.13
2019-02-16T02:28:33.804Z,7.10
2019-02-16T02:31:08.216Z,7.87
2019-02-16T02:33:40.751Z,8.73
2019-02-16T02:36:14.510Z,7.03
2019-02-16T02:38:47.175Z,9.23
2019-02-16T02:41:21.337Z,10.13
2019-02-16T02:43:54.327Z,7.83
2019-02-16T02:46:26.838Z,8.53
2019-02-16T02:48:59.440Z,8.03
2019-02-16T02:51:32.241Z,7.50
2019-02-16T02:54:04.878Z,10.37
2019-02-16T02:56:37.442Z,7.10
2019-02-16T02:59:10.414Z,8.23
2019-02-16T03:01:43.010Z,6.50
2019-02-16T03:04:15.600Z,9.10
2019-02-16T03:06:51.384Z,7.87
2019-02-16T03:09:23.968Z,6.97
2019-02-16T03:11:57.610Z,8.53
2019-02-16T03:14:31.650Z,8.17
2019-02-16T03:17:04.194Z,8.68
2019-02-16T03:19:36.719Z,8.77
2019-02-16T03:22:10.259Z,7.77
2019-02-16T03:24:43.883Z,7.73
2019-02-16T03:28:15.845Z,9.07
2019-02-16T03:31:25.215Z,9.97
2019-02-16T03:34:09.340Z,6.67
2019-02-16T03:37:07.265Z,8.60
2019-02-16T03:39:45.435Z,8.10
2019-02-16T03:42:18.943Z,9.07
2019-02-16T03:44:51.489Z,8.23
2019-02-16T03:47:24.447Z,6.95
2019-02-16T03:49:57.073Z,7.93
2019-02-16T03:52:29.809Z,9.00
2019-02-16T03:55:02.677Z,7.37
2019-02-16T03:57:35.174Z,7.60
2019-02-16T04:00:08.636Z,7.20
2019-02-16T04:02:41.797Z,9.73
2019-02-16T04:05:14.618Z,7.80
2019-02-16T04:07:47.142Z,7.70
2019-02-16T04:10:20.995Z,7.00
2019-02-16T04:12:53.475Z,8.50
2019-02-16T04:15:30.514Z,9.93
2019-02-16T04:18:04.079Z,6.90
2019-02-16T04:20:37.298Z,8.67
2019-02-16T04:23:10.307Z,6.53
2019-02-16T04:25:42.794Z,6.60
2019-02-16T04:28:15.337Z,8.07
2019-02-16T04:30:48.264Z,6.60
2019-02-16T04:33:20.923Z,7.17
2019-02-16T04:35:53.780Z,8.23
2019-02-16T04:38:28.155Z,7.60
2019-02-16T04:41:00.749Z,6.60
2019-02-16T04:43:33.274Z,8.97
2019-02-16T04:46:06.045Z,9.30
2019-02-16T04:48:38.595Z,9.17
2019-02-16T04:51:11.552Z,8.33
2019-02-16T04:53:44.498Z,9.13
2019-02-16T04:56:16.939Z,8.80
2019-02-16T04:58:49.611Z,7.33
2019-02-16T05:01:22.803Z,8.70
2019-02-16T05:03:55.290Z,7.23
2019-02-16T05:06:27.972Z,8.60
2019-02-16T05:09:03.361Z,10.03
2019-02-16T05:11:35.701Z,8.38
2019-02-16T05:14:08.207Z,8.73
2019-02-16T05:16:40.997Z,9.67
2019-02-16T05:19:14.184Z,8.23
2019-02-16T05:21:46.761Z,7.60
2019-02-16T05:24:19.942Z,7.17
2019-02-16T05:26:53.584Z,7.80
2019-02-16T05:29:26.130Z,8.70
2019-02-16T05:31:58.890Z,7.83
2019-02-16T05:34:32.069Z,10.13
2019-02-16T05:37:04.665Z,7.73
2019-02-16T05:39:39.306Z,8.30
2019-02-16T05:42:12.091Z,7.73
2019-02-16T05:44:44.651Z,7.33
2019-02-16T05:47:19.278Z,8.63
2019-02-16T05:49:59.854Z,9.23
2019-02-16T05:52:33.659Z,8.43
2019-02-16T05:55:07.214Z,7.93
2019-02-16T05:57:39.577Z,6.73
2019-02-16T06:00:17.780Z,7.67
2019-02-16T06:02:50.263Z,8.20
2019-02-16T06:05:22.890Z,10.07
2019-02-16T06:07:55.426Z,8.50
2019-02-16T06:10:28.257Z,7.33
2019-02-16T06:13:00.786Z,7.83
2019-02-16T06:15:33.362Z,11.47
2019-02-16T06:18:06.456Z,7.90
2019-02-16T06:20:39.217Z,6.97
2019-02-16T06:23:11.730Z,9.03
2019-02-16T06:25:48.515Z,7.37
2019-02-16T06:28:21.955Z,8.57
2019-02-16T06:30:54.569Z,7.33
2019-02-16T06:33:27.417Z,8.57
2019-02-16T06:36:13.861Z,7.00
2019-02-16T06:38:46.681Z,9.00
2019-02-16T06:41:19.707Z,8.03
2019-02-16T06:43:54.115Z,7.77
2019-02-16T06:46:26.673Z,8.67
2019-02-16T06:49:06.827Z,7.20
2019-02-16T06:51:42.021Z,8.97
2019-02-16T06:54:15.237Z,7.80
2019-02-16T06:56:54.307Z,10.73
2019-02-16T06:59:31.460Z,7.67
2019-02-16T07:02:04.518Z,9.73
2019-02-16T07:04:39.292Z,7.50
2019-02-16T07:07:11.833Z,8.83
2019-02-16T07:09:44.539Z,8.53
2019-02-16T07:12:18.671Z,8.87
2019-02-16T07:14:51.703Z,7.73
2019-02-16T07:17:48.815Z,9.20
2019-02-16T07:20:33.248Z,7.25
2019-02-16T07:23:06.581Z,9.30
2019-02-16T07:25:39.465Z,10.13
2019-02-16T07:28:12.991Z,8.00
2019-02-16T07:30:46.221Z,7.37
2019-02-16T07:33:20.084Z,9.43
2019-02-16T07:35:52.524Z,9.70
2019-02-16T07:38:25.998Z,7.40
2019-02-16T07:41:00.254Z,7.90
2019-02-16T07:43:40.827Z,8.48
2019-02-16T07:46:24.235Z,9.07
2019-02-16T07:49:06.584Z,8.07
2019-02-16T07:51:45.373Z,7.07
2019-02-16T07:54:29.392Z,8.80
2019-02-16T07:57:21.739Z,7.97
2019-02-16T08:00:15.314Z,7.25
2019-02-16T08:03:01.686Z,8.70
2019-02-16T08:05:59.175Z,8.60
2019-02-16T08:08:55.724Z,7.90
2019-02-16T08:11:50.009Z,6.40
2019-02-16T08:14:31.530Z,6.43
2019-02-16T08:17:23.619Z,6.50
2019-02-16T08:20:05.144Z,8.13
2019-02-16T08:22:46.394Z,9.00
2019-02-16T08:25:30.780Z,8.00
2019-02-16T08:28:14.271Z,8.73
2019-02-16T08:30:53.854Z,7.10
2019-02-16T08:33:34.072Z,9.93
2019-02-16T08:36:18.593Z,7.47
2019-02-16T08:39:13.478Z,8.63
2019-02-16T08:42:04.555Z,6.78
2019-02-16T08:44:59.131Z,6.77
2019-02-16T08:47:46.905Z,7.62
2019-02-16T08:50:29.602Z,8.15
2019-02-16T08:53:09.117Z,9.07
2019-02-16T08:55:48.296Z,9.83
2019-02-16T08:58:44.500Z,8.77
2019-02-16T09:01:23.795Z,8.90
2019-02-16T09:04:18.121Z,7.87
2019-02-16T09:07:21.505Z,8.17
2019-02-16T09:10:14.886Z,7.90
2019-02-16T09:13:19.616Z,8.10
2019-02-16T09:16:13.798Z,9.83
2019-02-16T09:19:05.723Z,7.18
2019-02-16T09:21:48.647Z,7.87
2019-02-16T09:24:45.506Z,7.07
2019-02-16T09:27:39.923Z,7.77
2019-02-16T09:31:06.114Z,7.05
2019-02-16T09:34:14.371Z,7.22
2019-02-16T09:36:53.343Z,6.17
2019-02-16T09:39:44.981Z,6.87
2019-02-16T09:42:29.079Z,6.67
2019-02-16T09:45:26.090Z,6.80
2019-02-16T09:48:18.570Z,8.77
2019-02-16T09:51:01.203Z,9.10
2019-02-16T09:53:56.356Z,7.07
2019-02-16T09:56:48.901Z,7.77
2019-02-16T09:59:38.687Z,9.05
2019-02-16T10:02:24.067Z,7.53
2019-02-16T10:05:08.326Z,8.63
2019-02-16T10:07:52.361Z,7.80
2019-02-16T10:10:31.461Z,7.10
2019-02-16T10:13:17.798Z,7.60
2019-02-16T10:16:12.493Z,6.13
2019-02-16T10:19:02.062Z,9.47
2019-02-16T10:21:54.507Z,7.15
2019-02-16T10:24:43.751Z,8.80
2019-02-16T10:27:21.975Z,7.05
2019-02-16T10:30:14.838Z,8.57
2019-02-16T10:33:02.418Z,9.90
2019-02-16T10:35:43.044Z,9.20
2019-02-16T10:38:41.928Z,6.50
2019-02-16T10:41:30.716Z,10.93
2019-02-16T10:44:13.475Z,9.00
2019-02-16T10:46:59.588Z,9.07
2019-02-16T10:49:55.689Z,8.07
2019-02-16T10:52:47.775Z,9.27
2019-02-16T10:55:41.467Z,12.07
2019-02-16T10:58:55.203Z,8.93
2019-02-16T11:02:02.234Z,9.95
2019-02-16T11:05:01.419Z,8.63
2019-02-16T11:07:41.699Z,8.70
2019-02-16T11:10:22.528Z,8.63
2019-02-16T11:13:05.700Z,9.15
2019-02-16T11:15:46.130Z,11.13
2019-02-16T11:18:41.282Z,11.50
2019-02-16T11:21:25.578Z,10.13
2019-02-16T11:24:07.163Z,12.00
2019-02-16T11:26:56.746Z,15.77
2019-02-16T11:29:45.873Z,16.33
2019-02-16T11:32:39.138Z,13.32
2019-02-16T11:35:24.989Z,12.47
2019-02-16T11:38:03.515Z,12.93
2019-02-16T11:40:43.156Z,14.10
2019-02-16T11:43:24.270Z,15.07
2019-02-16T11:46:17.694Z,14.80
2019-02-16T11:49:13.754Z,18.48
2019-02-16T11:52:10.911Z,17.10
2019-02-16T11:54:53.975Z,15.50
2019-02-16T11:57:40.440Z,15.00
2019-02-16T12:00:26.856Z,15.47
2019-02-16T12:03:09.289Z,19.47
2019-02-16T12:05:48.844Z,16.00
2019-02-16T12:08:35.332Z,17.47
2019-02-16T12:11:23.334Z,15.03
2019-02-16T12:14:11.448Z,16.00
2019-02-16T12:16:56.365Z,17.40
2019-02-16T12:19:55.142Z,16.50
2019-02-16T12:22:49.368Z,15.50
2019-02-16T12:25:33.453Z,16.73
2019-02-16T12:28:12.241Z,18.37
2019-02-16T12:30:57.707Z,15.50
2019-02-16T12:33:36.507Z,15.80
2019-02-16T12:36:33.350Z,15.45
2019-02-16T12:39:24.017Z,16.43
2019-02-16T12:42:05.542Z,16.13
2019-02-16T12:44:51.070Z,16.57
2019-02-16T12:47:39.900Z,17.67
2019-02-16T12:50:20.344Z,14.93
2019-02-16T12:53:05.792Z,15.07
2019-02-16T12:55:47.309Z,18.10
2019-02-16T12:58:48.638Z,17.70
2019-02-16T13:01:44.300Z,17.87
2019-02-16T13:04:44.536Z,19.73
2019-02-16T13:10:52.365Z,16.77
2019-02-16T13:13:33.039Z,16.27
2019-02-16T13:16:29.748Z,16.53
2019-02-16T13:19:33.995Z,19.95
2019-02-16T13:22:14.017Z,17.37
2019-02-16T13:25:07.087Z,18.20
2019-02-16T13:28:00.684Z,16.13
2019-02-16T13:30:44.802Z,19.70
2019-02-16T13:33:38.809Z,17.57
2019-02-16T13:36:28.676Z,20.57
2019-02-16T13:39:16.195Z,18.07
2019-02-16T13:42:11.294Z,16.67
2019-02-16T13:44:56.708Z,15.77
2019-02-16T13:47:45.324Z,18.73
2019-02-16T13:50:25.159Z,16.63
2019-02-16T13:53:03.839Z,19.60
2019-02-16T13:55:46.232Z,17.63
2019-02-16T13:58:33.116Z,20.20
2019-02-16T14:01:21.075Z,22.27
2019-02-16T14:04:19.239Z,17.10
2019-02-16T14:07:17.684Z,19.30
2019-02-16T14:10:07.394Z,17.87
2019-02-16T14:12:52.333Z,17.60
2019-02-16T14:15:45.729Z,21.57
2019-02-16T14:18:22.294Z,18.97
2019-02-16T14:20:55.808Z,17.77
2019-02-16T14:23:29.766Z,19.47
2019-02-16T14:26:04.341Z,20.07
2019-02-16T14:28:37.045Z,16.73
2019-02-16T14:31:11.148Z,18.53
2019-02-16T14:33:44.483Z,19.77
2019-02-16T14:36:18.158Z,21.03
2019-02-16T14:39:01.459Z,18.50
2019-02-16T14:41:35.453Z,18.40
2019-02-16T14:44:09.150Z,20.00
2019-02-16T14:46:43.399Z,16.50
2019-02-16T14:49:17.615Z,19.67
2019-02-16T14:51:52.584Z,17.63
2019-02-16T14:54:30.237Z,19.75
2019-02-16T14:57:04.261Z,20.27
2019-02-16T14:59:37.367Z,18.42
2019-02-16T15:02:12.032Z,17.77
2019-02-16T15:04:45.253Z,19.67
2019-02-16T15:07:19.388Z,16.90
2019-02-16T15:09:55.544Z,17.70
2019-02-16T15:12:28.346Z,19.40
2019-02-16T15:15:10.107Z,16.80
2019-02-16T15:17:46.591Z,18.63
2019-02-16T15:20:23.317Z,19.73
2019-02-16T15:22:58.632Z,17.63
2019-02-16T15:25:34.044Z,20.40
2019-02-16T15:28:07.704Z,17.90
2019-02-16T15:30:41.755Z,18.73
2019-02-16T15:33:14.802Z,20.43
2019-02-16T15:35:47.356Z,18.47
2019-02-16T15:38:20.072Z,18.07
2019-02-16T15:40:53.719Z,19.83
2019-02-16T15:43:27.192Z,16.97
2019-02-16T15:46:08.249Z,18.10
2019-02-16T15:48:41.245Z,17.63
2019-02-16T15:51:15.263Z,18.43
2019-02-16T15:53:50.398Z,22.50
2019-02-16T15:56:23.778Z,20.67
2019-02-16T15:58:59.657Z,21.43
2019-02-16T16:01:37.284Z,17.73
2019-02-16T16:04:12.370Z,19.80
2019-02-16T16:06:46.599Z,19.33
2019-02-16T16:09:34.587Z,18.27
2019-02-16T16:12:20.655Z,21.97
2019-02-16T16:15:03.542Z,18.07
2019-02-16T16:17:47.426Z,17.87
2019-02-16T16:20:25.717Z,19.67
2019-02-16T16:23:10.794Z,21.83
2019-02-16T16:25:52.396Z,21.53
2019-02-16T16:28:35.488Z,22.73
2019-02-16T16:31:13.484Z,18.95
2019-02-16T16:33:51.715Z,17.50
2019-02-16T16:36:51.806Z,19.63
2019-02-16T16:39:42.475Z,19.35
2019-02-16T16:42:41.963Z,24.73
2019-02-16T16:45:24.238Z,20.30
2019-02-16T16:48:03.159Z,18.70
2019-02-16T16:50:55.961Z,23.40
2019-02-16T16:53:46.902Z,19.33
2019-02-16T16:56:28.883Z,22.00
2019-02-16T16:59:07.862Z,16.83
2019-02-16T17:01:54.392Z,20.03
2019-02-16T17:04:36.239Z,19.92
2019-02-16T17:07:14.748Z,21.80
2019-02-16T17:09:58.448Z,18.10
2019-02-16T17:12:38.071Z,23.17
2019-02-16T17:15:31.038Z,19.93
2019-02-16T17:18:19.669Z,23.00
2019-02-16T17:21:09.252Z,29.83
2019-02-16T17:23:59.355Z,24.73
2019-02-16T17:26:45.595Z,25.13
2019-02-16T17:29:24.126Z,32.53
2019-02-16T17:32:19.164Z,29.33
2019-02-16T17:34:58.882Z,29.37
2019-02-16T17:37:46.539Z,25.60
2019-02-16T17:40:27.610Z,26.23
2019-02-16T17:43:07.272Z,23.60
2019-02-16T17:45:56.770Z,22.63
2019-02-16T17:48:38.972Z,21.00
2019-02-16T17:51:34.670Z,20.83
2019-02-16T17:54:28.770Z,18.60
2019-02-16T17:57:22.343Z,18.70
2019-02-16T18:00:05.635Z,19.90
2019-02-16T18:02:50.301Z,21.27
2019-02-16T18:05:47.457Z,19.90
2019-02-16T18:08:44.739Z,16.10
2019-02-16T18:11:46.471Z,16.87
2019-02-16T18:14:45.057Z,19.70
2019-02-16T18:17:27.582Z,22.23
2019-02-16T18:20:12.745Z,20.07
2019-02-16T18:23:00.475Z,21.47
2019-02-16T18:25:41.878Z,18.00
2019-02-16T18:28:21.115Z,20.50
2019-02-16T18:31:00.543Z,18.20
2019-02-16T18:33:52.567Z,24.30
2019-02-16T18:36:42.151Z,22.02
2019-02-16T18:39:34.634Z,18.00
2019-02-16T18:42:31.754Z,18.90
2019-02-16T18:45:29.127Z,20.95
2019-02-16T18:48:21.878Z,21.77
2019-02-16T18:51:01.915Z,20.90
2019-02-16T18:53:47.307Z,22.80
2019-02-16T18:56:39.824Z,21.58
2019-02-16T18:59:30.440Z,20.40
2019-02-16T19:02:15.372Z,20.60
2019-02-16T19:05:03.691Z,23.57
2019-02-16T19:07:49.119Z,20.25
2019-02-16T19:10:46.301Z,22.27
2019-02-16T19:13:39.127Z,22.03
2019-02-16T19:16:39.355Z,23.33
2019-02-16T19:20:05.115Z,21.05
2019-02-16T19:23:36.423Z,22.07
2019-02-16T19:26:55.355Z,22.95
2019-02-16T19:30:09.784Z,23.47
2019-02-16T19:33:19.705Z,23.07
2019-02-16T19:36:22.381Z,23.93
2019-02-16T19:39:29.232Z,25.10
2019-02-16T19:43:04.723Z,23.87
2019-02-16T19:45:54.542Z,27.20
2019-02-16T19:48:49.441Z,23.97
2019-02-16T19:51:29.545Z,23.07
2019-02-16T19:54:24.927Z,22.03
2019-02-16T19:57:06.218Z,29.37
2019-02-16T20:00:02.000Z,23.27
2019-02-16T20:03:18.071Z,23.38
2019-02-16T20:06:06.844Z,18.47
2019-02-16T20:09:03.415Z,22.23
2019-02-16T20:11:58.452Z,24.50
2019-02-16T20:14:43.715Z,24.47
2019-02-16T20:17:26.938Z,23.90
2019-02-16T20:20:20.144Z,23.20
2019-02-16T20:23:14.637Z,21.20
2019-02-16T20:26:19.584Z,24.30
2019-02-16T20:29:01.570Z,26.93
2019-02-16T20:31:44.426Z,25.92
2019-02-16T20:34:39.494Z,25.02
2019-02-16T20:37:39.266Z,23.10
2019-02-16T20:40:18.862Z,31.60
2019-02-16T20:42:57.434Z,21.47
2019-02-16T20:45:39.493Z,26.40
2019-02-16T20:48:25.510Z,21.47
2019-02-16T20:51:04.754Z,21.80
2019-02-16T20:53:45.504Z,23.65
2019-02-16T20:56:27.152Z,20.07
2019-02-16T20:59:25.530Z,26.70
2019-02-16T21:02:26.571Z,23.77
2019-02-16T21:05:04.719Z,26.77
2019-02-16T21:07:47.296Z,23.63
2019-02-16T21:10:32.439Z,23.13
2019-02-16T21:13:14.823Z,22.03
2019-02-16T21:16:01.827Z,27.43
2019-02-16T21:18:45.847Z,24.07
2019-02-16T21:21:34.707Z,22.70
2019-02-16T21:24:32.159Z,21.20
2019-02-16T21:27:10.506Z,24.03
2019-02-16T21:30:05.378Z,24.58
2019-02-16T21:32:54.534Z,25.27
2019-02-16T21:35:53.227Z,25.45
2019-02-16T21:38:47.442Z,22.90
2019-02-16T21:41:28.187Z,27.93
2019-02-16T21:44:20.368Z,23.90
2019-02-16T21:47:21.241Z,26.23
2019-02-16T21:50:02.708Z,29.77
2019-02-16T21:53:09.832Z,24.47
2019-02-16T21:55:58.809Z,28.37
2019-02-16T21:58:38.336Z,26.53
2019-02-16T22:01:20.747Z,23.23
2019-02-16T22:04:19.392Z,24.73
2019-02-16T22:07:15.458Z,24.90
2019-02-16T22:10:15.394Z,26.33
2019-02-16T22:13:02.517Z,25.97
2019-02-16T22:15:37.058Z,25.63
2019-02-16T22:18:14.508Z,22.53
2019-02-16T22:20:49.519Z,27.40
2019-02-16T22:23:22.148Z,25.80
2019-02-16T22:25:57.210Z,26.47
2019-02-16T22:28:32.500Z,27.67
2019-02-16T22:31:09.450Z,24.60
2019-02-16T22:34:00.118Z,24.43
2019-02-16T22:36:33.812Z,23.30
2019-02-16T22:39:17.281Z,23.13
2019-02-16T22:41:55.603Z,26.67
2019-02-16T22:44:31.510Z,27.17
2019-02-16T22:47:06.510Z,29.57
2019-02-16T22:49:39.769Z,29.30
2019-02-16T22:52:14.923Z,25.37
2019-02-16T22:54:47.813Z,25.53
2019-02-16T22:57:21.206Z,28.80
2019-02-16T22:59:53.964Z,27.58
2019-02-16T23:02:29.131Z,28.90
2019-02-16T23:05:01.721Z,25.97
2019-02-16T23:07:34.372Z,27.03
2019-02-16T23:10:10.511Z,32.37
2019-02-16T23:12:43.631Z,28.50
2019-02-16T23:15:21.620Z,28.83
2019-02-16T23:17:54.302Z,26.53
2019-02-16T23:20:28.495Z,26.87
2019-02-16T23:23:01.020Z,26.23
2019-02-16T23:25:34.704Z,27.53
2019-02-16T23:28:08.703Z,25.53
2019-02-16T23:30:41.327Z,26.10
2019-02-16T23:33:14.468Z,22.40
2019-02-16T23:35:48.920Z,23.45
2019-02-16T23:38:22.294Z,23.80
2019-02-16T23:40:56.050Z,23.23
2019-02-16T23:43:30.549Z,25.60
2019-02-16T23:46:03.808Z,23.63
2019-02-16T23:48:40.839Z,22.20
2019-02-16T23:51:14.705Z,23.77
2019-02-16T23:53:47.359Z,23.45
2019-02-16T23:56:20.661Z,23.40
2019-02-16T23:58:56.504Z,24.45
